sensor_id;sensor_type;location;lat;lon;timestamp;P1;durP1;ratioP1;P2;durP2;ratioP2
14748;SDS011;7466;53.574;9.976;2022-12-07T00:01:17;33.57;;;23.73;;
14748;SDS011;7466;53.574;9.976;2022-12-07T00:03:46;34.13;;;23.73;;
14748;SDS011;7466;53.574;9.976;2022-12-07T00:06:15;34.10;;;23.50;;
14748;SDS011;7466;53.574;9.976;2022-12-07T00:08:43;32.90;;;22.90;;
14748;SDS011;7466;53.574;9.976;2022-12-07T00:11:11;35.00;;;24.20;;
14748;SDS011;7466;53.574;9.976;2022-12-07T00:13:43;31.53;;;22.33;;
14748;SDS011;7466;53.574;9.976;2022-12-07T00:16:11;31.63;;;22.23;;
14748;SDS011;7466;53.574;9.976;2022-12-07T00:18:39;40.73;;;24.27;;
14748;SDS011;7466;53.574;9.976;2022-12-07T00:21:07;32.17;;;23.70;;
14748;SDS011;7466;53.574;9.976;2022-12-07T00:23:36;30.63;;;22.80;;
14748;SDS011;7466;53.574;9.976;2022-12-07T00:26:04;32.77;;;24.13;;
14748;SDS011;7466;53.574;9.976;2022-12-07T00:28:31;32.07;;;22.30;;
14748;SDS011;7466;53.574;9.976;2022-12-07T00:31:02;36.67;;;22.80;;
14748;SDS011;7466;53.574;9.976;2022-12-07T00:33:30;30.60;;;22.70;;
14748;SDS011;7466;53.574;9.976;2022-12-07T00:35:57;34.70;;;24.67;;
14748;SDS011;7466;53.574;9.976;2022-12-07T00:38:26;31.33;;;22.83;;
14748;SDS011;7466;53.574;9.976;2022-12-07T00:40:55;30.70;;;23.03;;
14748;SDS011;7466;53.574;9.976;2022-12-07T00:43:22;34.50;;;22.63;;
14748;SDS011;7466;53.574;9.976;2022-12-07T00:45:49;31.70;;;22.53;;
14748;SDS011;7466;53.574;9.976;2022-12-07T00:48:18;31.87;;;22.00;;
14748;SDS011;7466;53.574;9.976;2022-12-07T00:50:45;29.57;;;19.53;;
14748;SDS011;7466;53.574;9.976;2022-12-07T00:53:12;30.43;;;21.63;;
14748;SDS011;7466;53.574;9.976;2022-12-07T00:55:40;28.17;;;20.97;;
14748;SDS011;7466;53.574;9.976;2022-12-07T00:58:07;28.03;;;20.53;;
14748;SDS011;7466;53.574;9.976;2022-12-07T01:00:35;27.80;;;19.97;;
14748;SDS011;7466;53.574;9.976;2022-12-07T01:03:03;29.70;;;20.20;;
14748;SDS011;7466;53.574;9.976;2022-12-07T01:05:31;26.00;;;19.13;;
14748;SDS011;7466;53.574;9.976;2022-12-07T01:07:58;27.07;;;19.37;;
14748;SDS011;7466;53.574;9.976;2022-12-07T01:10:25;25.30;;;18.80;;
14748;SDS011;7466;53.574;9.976;2022-12-07T01:12:52;27.97;;;17.73;;
14748;SDS011;7466;53.574;9.976;2022-12-07T01:15:19;25.47;;;17.87;;
14748;SDS011;7466;53.574;9.976;2022-12-07T01:17:46;25.40;;;17.63;;
14748;SDS011;7466;53.574;9.976;2022-12-07T01:20:13;20.60;;;17.10;;
14748;SDS011;7466;53.574;9.976;2022-12-07T01:22:42;26.40;;;17.57;;
14748;SDS011;7466;53.574;9.976;2022-12-07T01:25:10;27.10;;;17.77;;
14748;SDS011;7466;53.574;9.976;2022-12-07T01:27:38;21.67;;;17.00;;
14748;SDS011;7466;53.574;9.976;2022-12-07T01:30:05;19.73;;;16.83;;
14748;SDS011;7466;53.574;9.976;2022-12-07T01:32:36;23.67;;;17.13;;
14748;SDS011;7466;53.574;9.976;2022-12-07T01:35:03;20.60;;;16.17;;
14748;SDS011;7466;53.574;9.976;2022-12-07T01:37:33;24.07;;;17.40;;
14748;SDS011;7466;53.574;9.976;2022-12-07T01:40:03;28.27;;;17.23;;
14748;SDS011;7466;53.574;9.976;2022-12-07T01:42:31;25.17;;;17.30;;
14748;SDS011;7466;53.574;9.976;2022-12-07T01:48:02;34.90;;;18.80;;
14748;SDS011;7466;53.574;9.976;2022-12-07T01:50:34;26.27;;;17.83;;
14748;SDS011;7466;53.574;9.976;2022-12-07T01:53:02;26.73;;;17.57;;
14748;SDS011;7466;53.574;9.976;2022-12-07T01:55:34;26.97;;;18.50;;
14748;SDS011;7466;53.574;9.976;2022-12-07T01:58:03;23.40;;;17.93;;
14748;SDS011;7466;53.574;9.976;2022-12-07T02:00:30;25.53;;;16.57;;
14748;SDS011;7466;53.574;9.976;2022-12-07T02:03:03;26.93;;;16.70;;
14748;SDS011;7466;53.574;9.976;2022-12-07T02:05:33;23.27;;;16.97;;
14748;SDS011;7466;53.574;9.976;2022-12-07T02:08:01;22.53;;;16.33;;
14748;SDS011;7466;53.574;9.976;2022-12-07T02:10:30;25.67;;;16.33;;
14748;SDS011;7466;53.574;9.976;2022-12-07T02:13:00;25.73;;;15.23;;
14748;SDS011;7466;53.574;9.976;2022-12-07T02:15:30;23.40;;;14.33;;
14748;SDS011;7466;53.574;9.976;2022-12-07T02:18:09;26.73;;;15.47;;
14748;SDS011;7466;53.574;9.976;2022-12-07T02:20:42;22.50;;;15.27;;
14748;SDS011;7466;53.574;9.976;2022-12-07T02:23:30;22.00;;;13.33;;
14748;SDS011;7466;53.574;9.976;2022-12-07T02:26:34;18.70;;;13.07;;
14748;SDS011;7466;53.574;9.976;2022-12-07T02:29:31;23.77;;;12.80;;
14748;SDS011;7466;53.574;9.976;2022-12-07T02:32:03;17.30;;;12.27;;
14748;SDS011;7466;53.574;9.976;2022-12-07T02:34:37;15.53;;;10.50;;
14748;SDS011;7466;53.574;9.976;2022-12-07T02:37:23;12.50;;;9.80;;
14748;SDS011;7466;53.574;9.976;2022-12-07T02:40:00;17.17;;;9.00;;
14748;SDS011;7466;53.574;9.976;2022-12-07T02:42:32;11.87;;;8.10;;
14748;SDS011;7466;53.574;9.976;2022-12-07T02:45:04;11.67;;;8.40;;
14748;SDS011;7466;53.574;9.976;2022-12-07T02:47:32;9.70;;;7.40;;
14748;SDS011;7466;53.574;9.976;2022-12-07T02:50:02;12.00;;;7.00;;
14748;SDS011;7466;53.574;9.976;2022-12-07T02:52:31;9.17;;;7.20;;
14748;SDS011;7466;53.574;9.976;2022-12-07T02:54:58;10.73;;;6.87;;
14748;SDS011;7466;53.574;9.976;2022-12-07T02:57:35;13.47;;;6.07;;
14748;SDS011;7466;53.574;9.976;2022-12-07T03:00:14;6.23;;;5.63;;
14748;SDS011;7466;53.574;9.976;2022-12-07T03:02:46;8.97;;;6.30;;
14748;SDS011;7466;53.574;9.976;2022-12-07T03:05:31;8.47;;;6.10;;
14748;SDS011;7466;53.574;9.976;2022-12-07T03:08:11;8.67;;;5.47;;
14748;SDS011;7466;53.574;9.976;2022-12-07T03:10:43;5.30;;;4.80;;
14748;SDS011;7466;53.574;9.976;2022-12-07T03:13:21;9.13;;;5.30;;
14748;SDS011;7466;53.574;9.976;2022-12-07T03:15:53;10.63;;;5.10;;
14748;SDS011;7466;53.574;9.976;2022-12-07T03:18:25;9.53;;;5.10;;
14748;SDS011;7466;53.574;9.976;2022-12-07T03:20:56;10.47;;;4.60;;
14748;SDS011;7466;53.574;9.976;2022-12-07T03:23:28;6.83;;;4.20;;
14748;SDS011;7466;53.574;9.976;2022-12-07T03:25:59;9.40;;;4.17;;
14748;SDS011;7466;53.574;9.976;2022-12-07T03:28:28;7.07;;;4.40;;
14748;SDS011;7466;53.574;9.976;2022-12-07T03:31:01;6.27;;;3.60;;
14748;SDS011;7466;53.574;9.976;2022-12-07T03:33:36;6.37;;;3.87;;
14748;SDS011;7466;53.574;9.976;2022-12-07T03:36:09;5.03;;;3.20;;
14748;SDS011;7466;53.574;9.976;2022-12-07T03:38:42;5.93;;;3.10;;
14748;SDS011;7466;53.574;9.976;2022-12-07T03:41:16;3.53;;;3.27;;
14748;SDS011;7466;53.574;9.976;2022-12-07T03:43:48;8.87;;;3.10;;
14748;SDS011;7466;53.574;9.976;2022-12-07T03:46:19;6.50;;;3.43;;
14748;SDS011;7466;53.574;9.976;2022-12-07T03:48:53;9.13;;;3.07;;
14748;SDS011;7466;53.574;9.976;2022-12-07T03:51:25;7.90;;;3.17;;
14748;SDS011;7466;53.574;9.976;2022-12-07T03:53:58;4.43;;;2.60;;
14748;SDS011;7466;53.574;9.976;2022-12-07T03:56:33;6.10;;;2.70;;
14748;SDS011;7466;53.574;9.976;2022-12-07T03:59:02;4.20;;;3.03;;
14748;SDS011;7466;53.574;9.976;2022-12-07T04:01:30;7.93;;;2.40;;
14748;SDS011;7466;53.574;9.976;2022-12-07T04:03:58;7.43;;;2.90;;
14748;SDS011;7466;53.574;9.976;2022-12-07T04:06:25;3.50;;;2.43;;
14748;SDS011;7466;53.574;9.976;2022-12-07T04:08:51;7.23;;;3.13;;
14748;SDS011;7466;53.574;9.976;2022-12-07T04:11:18;3.23;;;2.93;;
14748;SDS011;7466;53.574;9.976;2022-12-07T04:13:45;10.23;;;3.33;;
14748;SDS011;7466;53.574;9.976;2022-12-07T04:16:31;5.27;;;3.20;;
14748;SDS011;7466;53.574;9.976;2022-12-07T04:18:58;5.03;;;2.93;;
14748;SDS011;7466;53.574;9.976;2022-12-07T04:21:25;6.40;;;3.30;;
14748;SDS011;7466;53.574;9.976;2022-12-07T04:23:53;8.77;;;3.40;;
14748;SDS011;7466;53.574;9.976;2022-12-07T04:26:20;3.40;;;3.10;;
14748;SDS011;7466;53.574;9.976;2022-12-07T04:28:47;5.13;;;3.23;;
14748;SDS011;7466;53.574;9.976;2022-12-07T04:31:14;6.70;;;3.20;;
14748;SDS011;7466;53.574;9.976;2022-12-07T04:33:42;3.67;;;3.07;;
14748;SDS011;7466;53.574;9.976;2022-12-07T04:36:09;5.07;;;3.63;;
14748;SDS011;7466;53.574;9.976;2022-12-07T04:38:36;4.00;;;3.60;;
14748;SDS011;7466;53.574;9.976;2022-12-07T04:41:04;6.13;;;3.47;;
14748;SDS011;7466;53.574;9.976;2022-12-07T04:43:32;6.27;;;3.67;;
14748;SDS011;7466;53.574;9.976;2022-12-07T04:45:59;4.87;;;3.30;;
14748;SDS011;7466;53.574;9.976;2022-12-07T04:48:26;6.53;;;3.63;;
14748;SDS011;7466;53.574;9.976;2022-12-07T04:50:54;5.37;;;4.10;;
14748;SDS011;7466;53.574;9.976;2022-12-07T04:53:21;3.63;;;3.30;;
14748;SDS011;7466;53.574;9.976;2022-12-07T04:55:48;5.03;;;3.77;;
14748;SDS011;7466;53.574;9.976;2022-12-07T04:58:15;7.50;;;3.60;;
14748;SDS011;7466;53.574;9.976;2022-12-07T05:00:42;5.97;;;3.53;;
14748;SDS011;7466;53.574;9.976;2022-12-07T05:03:09;4.10;;;3.77;;
14748;SDS011;7466;53.574;9.976;2022-12-07T05:05:36;3.87;;;3.57;;
14748;SDS011;7466;53.574;9.976;2022-12-07T05:08:07;4.40;;;4.00;;
14748;SDS011;7466;53.574;9.976;2022-12-07T05:10:35;6.90;;;3.90;;
14748;SDS011;7466;53.574;9.976;2022-12-07T05:13:02;6.73;;;3.80;;
14748;SDS011;7466;53.574;9.976;2022-12-07T05:15:29;6.37;;;3.97;;
14748;SDS011;7466;53.574;9.976;2022-12-07T05:17:56;4.97;;;4.13;;
14748;SDS011;7466;53.574;9.976;2022-12-07T05:20:22;6.33;;;4.07;;
14748;SDS011;7466;53.574;9.976;2022-12-07T05:22:49;4.37;;;3.80;;
14748;SDS011;7466;53.574;9.976;2022-12-07T05:25:18;6.30;;;4.20;;
14748;SDS011;7466;53.574;9.976;2022-12-07T05:27:44;8.93;;;4.10;;
14748;SDS011;7466;53.574;9.976;2022-12-07T05:30:12;7.30;;;4.10;;
14748;SDS011;7466;53.574;9.976;2022-12-07T05:32:39;5.67;;;3.83;;
14748;SDS011;7466;53.574;9.976;2022-12-07T05:35:06;6.13;;;4.10;;
14748;SDS011;7466;53.574;9.976;2022-12-07T05:37:35;6.63;;;4.13;;
14748;SDS011;7466;53.574;9.976;2022-12-07T05:40:02;4.63;;;4.00;;
14748;SDS011;7466;53.574;9.976;2022-12-07T05:42:32;6.50;;;4.10;;
14748;SDS011;7466;53.574;9.976;2022-12-07T05:44:59;5.57;;;3.97;;
14748;SDS011;7466;53.574;9.976;2022-12-07T05:47:26;5.90;;;3.73;;
14748;SDS011;7466;53.574;9.976;2022-12-07T05:49:53;6.17;;;4.10;;
14748;SDS011;7466;53.574;9.976;2022-12-07T05:52:20;4.67;;;4.10;;
14748;SDS011;7466;53.574;9.976;2022-12-07T05:54:47;5.27;;;4.50;;
14748;SDS011;7466;53.574;9.976;2022-12-07T05:57:14;5.30;;;4.27;;
14748;SDS011;7466;53.574;9.976;2022-12-07T05:59:42;7.77;;;4.40;;
14748;SDS011;7466;53.574;9.976;2022-12-07T06:02:09;5.17;;;3.90;;
14748;SDS011;7466;53.574;9.976;2022-12-07T06:04:38;9.37;;;4.13;;
14748;SDS011;7466;53.574;9.976;2022-12-07T06:07:06;7.23;;;4.30;;
14748;SDS011;7466;53.574;9.976;2022-12-07T06:09:34;6.27;;;3.90;;
14748;SDS011;7466;53.574;9.976;2022-12-07T06:12:01;5.10;;;3.83;;
14748;SDS011;7466;53.574;9.976;2022-12-07T06:14:48;5.93;;;4.20;;
14748;SDS011;7466;53.574;9.976;2022-12-07T06:17:15;7.03;;;3.97;;
14748;SDS011;7466;53.574;9.976;2022-12-07T06:19:42;5.97;;;4.10;;
14748;SDS011;7466;53.574;9.976;2022-12-07T06:22:09;5.83;;;4.20;;
14748;SDS011;7466;53.574;9.976;2022-12-07T06:24:37;4.77;;;4.27;;
14748;SDS011;7466;53.574;9.976;2022-12-07T06:27:04;6.60;;;4.20;;
14748;SDS011;7466;53.574;9.976;2022-12-07T06:29:31;5.50;;;4.03;;
14748;SDS011;7466;53.574;9.976;2022-12-07T06:32:00;4.63;;;3.93;;
14748;SDS011;7466;53.574;9.976;2022-12-07T06:34:27;7.07;;;3.87;;
14748;SDS011;7466;53.574;9.976;2022-12-07T06:36:54;4.40;;;4.00;;
14748;SDS011;7466;53.574;9.976;2022-12-07T06:39:21;5.43;;;3.70;;
14748;SDS011;7466;53.574;9.976;2022-12-07T06:41:52;4.00;;;3.10;;
14748;SDS011;7466;53.574;9.976;2022-12-07T06:44:19;3.90;;;3.60;;
14748;SDS011;7466;53.574;9.976;2022-12-07T06:46:47;3.57;;;3.23;;
14748;SDS011;7466;53.574;9.976;2022-12-07T06:49:15;7.97;;;3.20;;
14748;SDS011;7466;53.574;9.976;2022-12-07T06:51:42;5.97;;;3.40;;
14748;SDS011;7466;53.574;9.976;2022-12-07T06:54:09;5.77;;;3.60;;
14748;SDS011;7466;53.574;9.976;2022-12-07T06:56:37;9.87;;;3.10;;
14748;SDS011;7466;53.574;9.976;2022-12-07T06:59:05;6.27;;;3.03;;
14748;SDS011;7466;53.574;9.976;2022-12-07T07:01:33;8.27;;;3.00;;
14748;SDS011;7466;53.574;9.976;2022-12-07T07:04:01;3.57;;;2.90;;
14748;SDS011;7466;53.574;9.976;2022-12-07T07:06:30;4.60;;;3.03;;
14748;SDS011;7466;53.574;9.976;2022-12-07T07:08:56;7.57;;;3.07;;
14748;SDS011;7466;53.574;9.976;2022-12-07T07:11:23;5.80;;;3.00;;
14748;SDS011;7466;53.574;9.976;2022-12-07T07:13:50;5.63;;;2.67;;
14748;SDS011;7466;53.574;9.976;2022-12-07T07:16:17;7.00;;;3.00;;
14748;SDS011;7466;53.574;9.976;2022-12-07T07:18:44;3.30;;;2.40;;
14748;SDS011;7466;53.574;9.976;2022-12-07T07:21:11;5.37;;;2.30;;
14748;SDS011;7466;53.574;9.976;2022-12-07T07:23:39;3.97;;;2.53;;
14748;SDS011;7466;53.574;9.976;2022-12-07T07:26:09;3.80;;;2.60;;
14748;SDS011;7466;53.574;9.976;2022-12-07T07:28:35;4.73;;;2.40;;
14748;SDS011;7466;53.574;9.976;2022-12-07T07:31:03;6.13;;;2.70;;
14748;SDS011;7466;53.574;9.976;2022-12-07T07:33:30;4.13;;;2.57;;
14748;SDS011;7466;53.574;9.976;2022-12-07T07:35:59;5.30;;;2.20;;
14748;SDS011;7466;53.574;9.976;2022-12-07T07:38:25;4.27;;;2.60;;
14748;SDS011;7466;53.574;9.976;2022-12-07T07:40:54;2.60;;;2.20;;
14748;SDS011;7466;53.574;9.976;2022-12-07T07:43:21;7.83;;;2.53;;
14748;SDS011;7466;53.574;9.976;2022-12-07T07:45:49;4.67;;;2.13;;
14748;SDS011;7466;53.574;9.976;2022-12-07T07:48:15;4.80;;;2.47;;
14748;SDS011;7466;53.574;9.976;2022-12-07T07:50:42;4.07;;;2.27;;
14748;SDS011;7466;53.574;9.976;2022-12-07T07:53:09;5.27;;;2.20;;
14748;SDS011;7466;53.574;9.976;2022-12-07T07:55:36;3.67;;;2.10;;
14748;SDS011;7466;53.574;9.976;2022-12-07T07:58:04;3.13;;;1.90;;
14748;SDS011;7466;53.574;9.976;2022-12-07T08:00:31;3.03;;;2.10;;
14748;SDS011;7466;53.574;9.976;2022-12-07T08:02:58;3.47;;;1.90;;
14748;SDS011;7466;53.574;9.976;2022-12-07T08:05:25;3.03;;;2.20;;
14748;SDS011;7466;53.574;9.976;2022-12-07T08:07:52;5.13;;;2.00;;
14748;SDS011;7466;53.574;9.976;2022-12-07T08:10:19;5.97;;;2.30;;
14748;SDS011;7466;53.574;9.976;2022-12-07T08:12:46;5.47;;;2.20;;
14748;SDS011;7466;53.574;9.976;2022-12-07T08:15:32;3.53;;;1.90;;
14748;SDS011;7466;53.574;9.976;2022-12-07T08:17:59;3.27;;;2.10;;
14748;SDS011;7466;53.574;9.976;2022-12-07T08:20:29;4.20;;;1.90;;
14748;SDS011;7466;53.574;9.976;2022-12-07T08:22:57;6.03;;;2.03;;
14748;SDS011;7466;53.574;9.976;2022-12-07T08:25:23;6.27;;;2.43;;
14748;SDS011;7466;53.574;9.976;2022-12-07T08:27:51;3.13;;;1.87;;
14748;SDS011;7466;53.574;9.976;2022-12-07T08:30:18;5.93;;;1.90;;
14748;SDS011;7466;53.574;9.976;2022-12-07T08:32:47;3.27;;;1.73;;
14748;SDS011;7466;53.574;9.976;2022-12-07T08:35:14;6.10;;;2.33;;
14748;SDS011;7466;53.574;9.976;2022-12-07T08:37:41;3.10;;;2.00;;
14748;SDS011;7466;53.574;9.976;2022-12-07T08:40:09;5.37;;;2.27;;
14748;SDS011;7466;53.574;9.976;2022-12-07T08:42:40;5.67;;;2.20;;
14748;SDS011;7466;53.574;9.976;2022-12-07T08:45:08;2.77;;;2.20;;
14748;SDS011;7466;53.574;9.976;2022-12-07T08:47:38;5.37;;;1.93;;
14748;SDS011;7466;53.574;9.976;2022-12-07T08:50:10;4.87;;;1.80;;
14748;SDS011;7466;53.574;9.976;2022-12-07T08:52:38;3.17;;;1.53;;
14748;SDS011;7466;53.574;9.976;2022-12-07T08:55:08;3.63;;;1.70;;
14748;SDS011;7466;53.574;9.976;2022-12-07T08:57:36;4.03;;;1.83;;
14748;SDS011;7466;53.574;9.976;2022-12-07T09:00:03;2.87;;;1.60;;
14748;SDS011;7466;53.574;9.976;2022-12-07T09:02:31;3.97;;;1.90;;
14748;SDS011;7466;53.574;9.976;2022-12-07T09:04:58;6.07;;;1.97;;
14748;SDS011;7466;53.574;9.976;2022-12-07T09:07:26;6.40;;;1.73;;
14748;SDS011;7466;53.574;9.976;2022-12-07T09:09:53;4.53;;;1.80;;
14748;SDS011;7466;53.574;9.976;2022-12-07T09:12:21;4.80;;;1.90;;
14748;SDS011;7466;53.574;9.976;2022-12-07T09:14:47;4.57;;;2.03;;
14748;SDS011;7466;53.574;9.976;2022-12-07T09:17:14;4.60;;;1.70;;
14748;SDS011;7466;53.574;9.976;2022-12-07T09:19:41;5.13;;;2.17;;
14748;SDS011;7466;53.574;9.976;2022-12-07T09:22:08;4.77;;;2.10;;
14748;SDS011;7466;53.574;9.976;2022-12-07T09:24:37;1.90;;;1.60;;
14748;SDS011;7466;53.574;9.976;2022-12-07T09:27:03;9.53;;;2.27;;
14748;SDS011;7466;53.574;9.976;2022-12-07T09:29:30;5.97;;;1.90;;
14748;SDS011;7466;53.574;9.976;2022-12-07T09:31:57;4.70;;;1.80;;
14748;SDS011;7466;53.574;9.976;2022-12-07T09:34:24;7.93;;;2.10;;
14748;SDS011;7466;53.574;9.976;2022-12-07T09:36:52;4.30;;;1.70;;
14748;SDS011;7466;53.574;9.976;2022-12-07T09:39:19;8.60;;;2.73;;
14748;SDS011;7466;53.574;9.976;2022-12-07T09:41:47;5.90;;;1.93;;
14748;SDS011;7466;53.574;9.976;2022-12-07T09:44:17;5.63;;;1.90;;
14748;SDS011;7466;53.574;9.976;2022-12-07T09:46:47;4.77;;;2.23;;
14748;SDS011;7466;53.574;9.976;2022-12-07T09:49:16;7.63;;;2.40;;
14748;SDS011;7466;53.574;9.976;2022-12-07T09:51:45;7.27;;;1.70;;
14748;SDS011;7466;53.574;9.976;2022-12-07T09:54:13;5.93;;;1.77;;
14748;SDS011;7466;53.574;9.976;2022-12-07T09:56:41;6.90;;;1.80;;
14748;SDS011;7466;53.574;9.976;2022-12-07T09:59:12;8.70;;;1.80;;
14748;SDS011;7466;53.574;9.976;2022-12-07T10:01:41;6.47;;;2.17;;
14748;SDS011;7466;53.574;9.976;2022-12-07T10:04:09;3.23;;;1.70;;
14748;SDS011;7466;53.574;9.976;2022-12-07T10:06:40;8.20;;;2.00;;
14748;SDS011;7466;53.574;9.976;2022-12-07T10:09:10;3.07;;;1.53;;
14748;SDS011;7466;53.574;9.976;2022-12-07T10:14:25;4.43;;;1.50;;
14748;SDS011;7466;53.574;9.976;2022-12-07T10:16:53;5.33;;;1.70;;
14748;SDS011;7466;53.574;9.976;2022-12-07T10:19:22;6.13;;;1.83;;
14748;SDS011;7466;53.574;9.976;2022-12-07T10:22:05;7.87;;;1.67;;
14748;SDS011;7466;53.574;9.976;2022-12-07T10:24:41;9.30;;;1.73;;
14748;SDS011;7466;53.574;9.976;2022-12-07T10:27:17;5.70;;;1.80;;
14748;SDS011;7466;53.574;9.976;2022-12-07T10:29:51;7.23;;;1.43;;
14748;SDS011;7466;53.574;9.976;2022-12-07T10:32:27;3.73;;;1.77;;
14748;SDS011;7466;53.574;9.976;2022-12-07T10:35:19;3.93;;;1.60;;
14748;SDS011;7466;53.574;9.976;2022-12-07T10:37:48;8.33;;;1.80;;
14748;SDS011;7466;53.574;9.976;2022-12-07T10:40:26;4.33;;;2.23;;
14748;SDS011;7466;53.574;9.976;2022-12-07T10:43:03;5.47;;;1.67;;
14748;SDS011;7466;53.574;9.976;2022-12-07T10:45:34;10.67;;;2.17;;
14748;SDS011;7466;53.574;9.976;2022-12-07T10:48:08;3.90;;;1.53;;
14748;SDS011;7466;53.574;9.976;2022-12-07T10:50:47;5.80;;;1.60;;
14748;SDS011;7466;53.574;9.976;2022-12-07T10:53:24;3.63;;;1.60;;
14748;SDS011;7466;53.574;9.976;2022-12-07T10:56:07;6.27;;;1.60;;
14748;SDS011;7466;53.574;9.976;2022-12-07T10:58:48;7.17;;;2.40;;
14748;SDS011;7466;53.574;9.976;2022-12-07T11:01:24;5.07;;;1.70;;
14748;SDS011;7466;53.574;9.976;2022-12-07T11:04:04;6.70;;;1.70;;
14748;SDS011;7466;53.574;9.976;2022-12-07T11:06:45;3.47;;;1.30;;
14748;SDS011;7466;53.574;9.976;2022-12-07T11:09:28;3.53;;;1.63;;
14748;SDS011;7466;53.574;9.976;2022-12-07T11:12:24;6.77;;;1.70;;
14748;SDS011;7466;53.574;9.976;2022-12-07T11:14:59;3.13;;;1.50;;
14748;SDS011;7466;53.574;9.976;2022-12-07T11:17:33;6.47;;;1.60;;
14748;SDS011;7466;53.574;9.976;2022-12-07T11:20:12;5.27;;;1.63;;
14748;SDS011;7466;53.574;9.976;2022-12-07T11:22:50;5.83;;;1.83;;
14748;SDS011;7466;53.574;9.976;2022-12-07T11:25:25;5.17;;;1.30;;
14748;SDS011;7466;53.574;9.976;2022-12-07T11:28:02;8.50;;;1.53;;
14748;SDS011;7466;53.574;9.976;2022-12-07T11:30:42;4.60;;;1.57;;
14748;SDS011;7466;53.574;9.976;2022-12-07T11:33:17;5.27;;;1.47;;
14748;SDS011;7466;53.574;9.976;2022-12-07T11:35:51;5.73;;;1.77;;
14748;SDS011;7466;53.574;9.976;2022-12-07T11:38:27;4.73;;;1.97;;
14748;SDS011;7466;53.574;9.976;2022-12-07T11:41:09;6.23;;;1.90;;
14748;SDS011;7466;53.574;9.976;2022-12-07T11:43:42;6.83;;;1.70;;
14748;SDS011;7466;53.574;9.976;2022-12-07T11:46:18;5.60;;;1.73;;
14748;SDS011;7466;53.574;9.976;2022-12-07T11:48:51;5.63;;;1.80;;
14748;SDS011;7466;53.574;9.976;2022-12-07T11:51:28;5.13;;;1.37;;
14748;SDS011;7466;53.574;9.976;2022-12-07T11:53:59;9.87;;;2.10;;
14748;SDS011;7466;53.574;9.976;2022-12-07T11:56:31;5.23;;;1.87;;
14748;SDS011;7466;53.574;9.976;2022-12-07T11:59:04;4.63;;;1.43;;
14748;SDS011;7466;53.574;9.976;2022-12-07T12:01:40;8.40;;;2.13;;
14748;SDS011;7466;53.574;9.976;2022-12-07T12:04:27;6.10;;;2.00;;
14748;SDS011;7466;53.574;9.976;2022-12-07T12:06:58;4.30;;;1.83;;
14748;SDS011;7466;53.574;9.976;2022-12-07T12:09:26;8.33;;;1.57;;
14748;SDS011;7466;53.574;9.976;2022-12-07T12:12:05;9.07;;;1.83;;
14748;SDS011;7466;53.574;9.976;2022-12-07T12:14:55;4.47;;;1.30;;
14748;SDS011;7466;53.574;9.976;2022-12-07T12:17:53;8.47;;;2.00;;
14748;SDS011;7466;53.574;9.976;2022-12-07T12:20:35;7.77;;;1.63;;
14748;SDS011;7466;53.574;9.976;2022-12-07T12:23:07;6.80;;;2.10;;
14748;SDS011;7466;53.574;9.976;2022-12-07T12:25:39;4.33;;;1.67;;
14748;SDS011;7466;53.574;9.976;2022-12-07T12:28:17;4.60;;;1.73;;
14748;SDS011;7466;53.574;9.976;2022-12-07T12:30:51;9.70;;;2.00;;
14748;SDS011;7466;53.574;9.976;2022-12-07T12:33:32;6.07;;;2.20;;
14748;SDS011;7466;53.574;9.976;2022-12-07T12:36:22;4.07;;;1.80;;
14748;SDS011;7466;53.574;9.976;2022-12-07T12:38:51;10.47;;;1.83;;
14748;SDS011;7466;53.574;9.976;2022-12-07T12:41:55;6.03;;;1.77;;
14748;SDS011;7466;53.574;9.976;2022-12-07T12:44:41;4.93;;;1.60;;
14748;SDS011;7466;53.574;9.976;2022-12-07T12:47:39;7.97;;;1.60;;
14748;SDS011;7466;53.574;9.976;2022-12-07T12:50:22;5.13;;;1.83;;
14748;SDS011;7466;53.574;9.976;2022-12-07T12:52:54;11.27;;;2.20;;
14748;SDS011;7466;53.574;9.976;2022-12-07T12:58:41;4.73;;;1.87;;
14748;SDS011;7466;53.574;9.976;2022-12-07T13:04:23;5.37;;;1.70;;
14748;SDS011;7466;53.574;9.976;2022-12-07T13:10:40;9.30;;;1.50;;
14748;SDS011;7466;53.574;9.976;2022-12-07T13:16:35;5.87;;;1.57;;
14748;SDS011;7466;53.574;9.976;2022-12-07T13:22:35;5.97;;;1.70;;
14748;SDS011;7466;53.574;9.976;2022-12-07T13:25:10;6.70;;;1.80;;
14748;SDS011;7466;53.574;9.976;2022-12-07T13:27:44;6.13;;;1.80;;
14748;SDS011;7466;53.574;9.976;2022-12-07T13:30:18;13.67;;;2.30;;
14748;SDS011;7466;53.574;9.976;2022-12-07T13:32:51;6.60;;;2.00;;
14748;SDS011;7466;53.574;9.976;2022-12-07T13:35:32;4.60;;;1.80;;
14748;SDS011;7466;53.574;9.976;2022-12-07T13:38:04;5.93;;;1.70;;
14748;SDS011;7466;53.574;9.976;2022-12-07T13:40:42;6.90;;;1.37;;
14748;SDS011;7466;53.574;9.976;2022-12-07T13:43:24;4.97;;;1.50;;
14748;SDS011;7466;53.574;9.976;2022-12-07T13:45:55;5.43;;;1.60;;
14748;SDS011;7466;53.574;9.976;2022-12-07T13:48:24;5.20;;;1.83;;
14748;SDS011;7466;53.574;9.976;2022-12-07T13:50:58;7.20;;;1.90;;
14748;SDS011;7466;53.574;9.976;2022-12-07T13:53:28;5.60;;;1.80;;
14748;SDS011;7466;53.574;9.976;2022-12-07T13:55:55;8.57;;;1.70;;
14748;SDS011;7466;53.574;9.976;2022-12-07T13:58:23;3.50;;;1.70;;
14748;SDS011;7466;53.574;9.976;2022-12-07T14:00:50;4.43;;;1.87;;
14748;SDS011;7466;53.574;9.976;2022-12-07T14:03:25;5.00;;;1.33;;
14748;SDS011;7466;53.574;9.976;2022-12-07T14:11:42;4.20;;;1.53;;
14748;SDS011;7466;53.574;9.976;2022-12-07T14:14:10;6.37;;;1.67;;
14748;SDS011;7466;53.574;9.976;2022-12-07T14:16:42;4.17;;;1.90;;
14748;SDS011;7466;53.574;9.976;2022-12-07T14:22:17;5.17;;;1.63;;
14748;SDS011;7466;53.574;9.976;2022-12-07T14:24:49;4.70;;;1.20;;
14748;SDS011;7466;53.574;9.976;2022-12-07T14:27:16;5.40;;;1.90;;
14748;SDS011;7466;53.574;9.976;2022-12-07T14:29:44;3.57;;;1.83;;
14748;SDS011;7466;53.574;9.976;2022-12-07T14:32:22;6.73;;;1.70;;
14748;SDS011;7466;53.574;9.976;2022-12-07T14:35:02;5.13;;;1.70;;
14748;SDS011;7466;53.574;9.976;2022-12-07T14:37:36;4.90;;;1.97;;
14748;SDS011;7466;53.574;9.976;2022-12-07T14:40:05;4.27;;;1.60;;
14748;SDS011;7466;53.574;9.976;2022-12-07T14:42:33;7.00;;;1.40;;
14748;SDS011;7466;53.574;9.976;2022-12-07T14:45:01;9.33;;;1.77;;
14748;SDS011;7466;53.574;9.976;2022-12-07T14:47:28;6.87;;;1.97;;
14748;SDS011;7466;53.574;9.976;2022-12-07T14:49:54;5.67;;;1.47;;
14748;SDS011;7466;53.574;9.976;2022-12-07T14:52:22;4.60;;;1.80;;
14748;SDS011;7466;53.574;9.976;2022-12-07T14:54:53;2.20;;;1.63;;
14748;SDS011;7466;53.574;9.976;2022-12-07T14:57:21;4.80;;;1.73;;
14748;SDS011;7466;53.574;9.976;2022-12-07T14:59:48;12.23;;;1.57;;
14748;SDS011;7466;53.574;9.976;2022-12-07T15:02:16;7.00;;;1.90;;
14748;SDS011;7466;53.574;9.976;2022-12-07T15:04:43;4.03;;;1.37;;
14748;SDS011;7466;53.574;9.976;2022-12-07T15:07:10;6.57;;;1.30;;
14748;SDS011;7466;53.574;9.976;2022-12-07T15:09:42;6.27;;;1.60;;
14748;SDS011;7466;53.574;9.976;2022-12-07T15:12:09;7.73;;;1.80;;
14748;SDS011;7466;53.574;9.976;2022-12-07T15:14:37;4.17;;;1.67;;
14748;SDS011;7466;53.574;9.976;2022-12-07T15:17:08;10.27;;;2.83;;
14748;SDS011;7466;53.574;9.976;2022-12-07T15:19:37;6.47;;;2.07;;
14748;SDS011;7466;53.574;9.976;2022-12-07T15:22:04;5.17;;;2.20;;
14748;SDS011;7466;53.574;9.976;2022-12-07T15:24:31;3.57;;;1.60;;
14748;SDS011;7466;53.574;9.976;2022-12-07T15:26:59;3.83;;;1.67;;
14748;SDS011;7466;53.574;9.976;2022-12-07T15:29:26;3.67;;;1.67;;
14748;SDS011;7466;53.574;9.976;2022-12-07T15:31:54;4.47;;;1.50;;
14748;SDS011;7466;53.574;9.976;2022-12-07T15:34:22;3.40;;;2.00;;
14748;SDS011;7466;53.574;9.976;2022-12-07T15:36:49;5.10;;;2.10;;
14748;SDS011;7466;53.574;9.976;2022-12-07T15:39:16;6.10;;;2.30;;
14748;SDS011;7466;53.574;9.976;2022-12-07T15:41:43;3.13;;;1.53;;
14748;SDS011;7466;53.574;9.976;2022-12-07T15:44:11;3.53;;;1.87;;
14748;SDS011;7466;53.574;9.976;2022-12-07T15:46:57;3.30;;;1.83;;
14748;SDS011;7466;53.574;9.976;2022-12-07T15:49:24;6.27;;;1.97;;